Terminal Aerodrome Forecast
Issued by NWS Wilmington, OH

Current Version | Previous Version | Text Only | Print | Product List | Glossary Off
Versions: 1 2 3 4 5 6 7 8 9 10 11 12 13 14 15 16 17 18 19 20 21 22 23

000
FTUS41 KILN 120541
TAFILN
TAF
KILN 120541Z 1206/1306 27015G23KT P6SM BKN045
     FM120800 29015G23KT P6SM OVC015
     FM121100 31018G28KT 3SM -SHSN OVC022
      TEMPO 1211/1214 1SM -SHSN
     FM121800 31018G26KT P6SM VCSH OVC035
     FM130000 30014KT P6SM BKN035=

USA.gov is the U.S. government's official web portal to all federal, state and local government web resources and services.